Time;durP1;ratioP1;P1;durP2;ratioP2;P2;SDS_P1;SDS_P2;PMS_P1;PMS_P2;Temp;Humidity;BMP_temperature;BMP_pressure;BME280_temperature;BME280_humidity;BME280_pressure;Samples;Min_cycle;Max_cycle;Signal;HPM_P1;HPM_P2
2022/11/16 00:00:32;;;;;;;10.60;7.10;;;11.20;99.90;;;;;;5038607;28;20037;-63
2022/11/16 00:03:01;;;;;;;9.10;7.35;;;11.20;99.90;;;;;;5025148;28;20130;-64
2022/11/16 00:05:27;;;;;;;10.25;7.28;;;11.20;99.90;;;;;;5045454;28;20033;-64
2022/11/16 00:07:53;;;;;;;10.18;7.35;;;11.20;99.90;;;;;;5046497;28;20437;-63
2022/11/16 00:10:18;;;;;;;9.23;7.30;;;11.20;99.90;;;;;;5044001;28;20064;-63
2022/11/16 00:12:44;;;;;;;11.48;7.05;;;11.20;99.90;;;;;;5039518;28;20559;-63
2022/11/16 00:15:10;;;;;;;10.93;7.88;;;11.20;99.90;;;;;;5041504;28;20029;-63
2022/11/16 00:17:35;;;;;;;11.23;8.18;;;11.10;99.90;;;;;;5039502;28;20086;-63
2022/11/16 00:20:01;;;;;;;10.77;7.85;;;11.10;99.90;;;;;;5044954;28;20044;-64
2022/11/16 00:22:27;;;;;;;11.20;7.80;;;11.20;99.90;;;;;;5051820;28;20410;-64
2022/11/16 00:24:52;;;;;;;10.55;8.00;;;11.10;99.90;;;;;;5048594;28;20045;-63
2022/11/16 00:27:18;;;;;;;11.75;8.27;;;11.10;99.90;;;;;;5050546;28;20037;-63
2022/11/16 00:29:43;;;;;;;10.57;7.93;;;11.20;99.90;;;;;;5047300;28;20163;-63
2022/11/16 00:32:09;;;;;;;12.27;7.57;;;11.20;99.90;;;;;;5045993;28;20087;-63
2022/11/16 00:34:35;;;;;;;10.38;7.65;;;11.20;99.90;;;;;;5040571;28;20438;-64
2022/11/16 00:37:00;;;;;;;13.02;8.25;;;11.20;99.90;;;;;;5042186;28;20029;-63
2022/11/16 00:39:26;;;;;;;13.02;8.25;;;11.20;99.90;;;;;;5045250;28;20051;-64
2022/11/16 00:41:51;;;;;;;10.13;7.65;;;11.20;99.90;;;;;;5044995;28;20569;-63
2022/11/16 00:44:17;;;;;;;11.93;7.82;;;11.20;99.90;;;;;;5038291;28;20038;-63
2022/11/16 00:46:43;;;;;;;11.20;8.00;;;11.20;99.90;;;;;;5045017;28;20029;-64
2022/11/16 00:49:09;;;;;;;11.20;7.95;;;11.20;99.90;;;;;;5045740;28;20532;-63
2022/11/16 00:51:35;;;;;;;13.55;7.60;;;11.20;99.90;;;;;;5043278;28;20029;-64
2022/11/16 00:54:03;;;;;;;11.15;8.10;;;11.20;99.90;;;;;;5036434;28;20071;-64
2022/11/16 00:56:29;;;;;;;9.38;7.63;;;11.30;99.90;;;;;;5032026;28;20029;-64
2022/11/16 00:58:54;;;;;;;11.57;8.23;;;11.10;99.90;;;;;;5042691;28;20512;-64
2022/11/16 01:01:20;;;;;;;10.35;7.60;;;11.30;99.90;;;;;;5022653;28;20037;-64
2022/11/16 01:03:46;;;;;;;11.80;8.73;;;11.20;99.90;;;;;;5035713;28;20052;-64
2022/11/16 01:06:13;;;;;;;11.05;8.48;;;11.20;99.90;;;;;;5045887;28;20052;-64
2022/11/16 01:08:40;;;;;;;11.65;7.90;;;11.30;99.90;;;;;;5038231;28;20037;-64
2022/11/16 01:13:51;;;;;;;10.43;8.00;;;11.30;99.90;;;;;;5045202;28;20048;-64
2022/11/16 01:16:18;;;;;;;11.18;7.60;;;11.20;99.90;;;;;;5029962;28;20037;-64
2022/11/16 01:18:48;;;;;;;11.25;7.78;;;11.30;99.90;;;;;;5040722;28;20037;-64
2022/11/16 01:21:13;;;;;;;11.38;7.72;;;11.30;99.90;;;;;;5043425;28;20033;-63
2022/11/16 01:23:39;;;;;;;11.00;7.95;;;11.30;99.90;;;;;;5026325;28;20170;-64
2022/11/16 01:26:05;;;;;;;11.02;7.72;;;11.30;99.90;;;;;;5039149;28;20075;-64
2022/11/16 01:28:31;;;;;;;9.85;7.43;;;11.30;99.90;;;;;;5050173;28;20048;-64
2022/11/16 01:30:57;;;;;;;10.13;7.63;;;11.30;99.90;;;;;;5042542;28;20044;-64
2022/11/16 01:33:23;;;;;;;10.25;7.28;;;11.30;99.90;;;;;;5039379;28;20487;-64
2022/11/16 01:35:49;;;;;;;10.65;7.72;;;11.30;99.90;;;;;;5047963;28;20037;-64
2022/11/16 01:38:15;;;;;;;11.25;7.25;;;11.30;99.90;;;;;;5033565;28;20045;-64
2022/11/16 01:40:41;;;;;;;12.50;7.40;;;11.30;99.90;;;;;;5046228;28;20076;-64
2022/11/16 01:43:23;;;;;;;11.43;7.03;;;11.30;99.90;;;;;;5052529;28;20406;-64
2022/11/16 01:45:49;;;;;;;9.30;6.93;;;11.30;99.90;;;;;;5048247;28;20533;-64
2022/11/16 01:48:19;;;;;;;10.63;7.20;;;11.30;99.90;;;;;;5048626;28;20041;-64
2022/11/16 01:50:45;;;;;;;10.93;7.22;;;11.40;99.90;;;;;;5033138;28;20513;-64
2022/11/16 01:53:12;;;;;;;11.13;7.05;;;11.30;99.90;;;;;;5046708;28;20044;-64
2022/11/16 01:55:40;;;;;;;9.35;6.50;;;11.30;99.90;;;;;;5042445;28;20043;-64
2022/11/16 01:58:06;;;;;;;11.30;6.82;;;11.30;99.90;;;;;;5043084;28;20033;-65
2022/11/16 02:00:32;;;;;;;9.40;6.72;;;11.30;99.90;;;;;;5045402;28;20112;-64
2022/11/16 02:02:58;;;;;;;10.10;6.50;;;11.30;99.90;;;;;;5035963;28;20099;-64
2022/11/16 02:05:56;;;;;;;9.00;6.57;;;11.30;99.90;;;;;;5045807;28;20422;-64
2022/11/16 02:12:12;;;;;;;11.38;6.68;;;11.30;99.90;;;;;;5045090;28;20037;-64
2022/11/16 02:14:59;;;;;;;10.80;6.38;;;11.30;99.90;;;;;;5047987;28;20461;-64
2022/11/16 02:17:38;;;;;;;10.15;6.75;;;11.30;99.90;;;;;;5044957;28;20120;-65
2022/11/16 02:20:46;;;;;;;14.10;6.03;;;11.30;99.90;;;;;;5032613;28;20037;-64
2022/11/16 02:23:30;;;;;;;8.95;5.93;;;11.30;99.90;;;;;;5015027;28;20506;-64
2022/11/16 02:26:34;;;;;;;8.65;6.00;;;11.30;99.90;;;;;;5038370;28;20522;-64
2022/11/16 02:29:31;;;;;;;11.73;6.45;;;11.30;99.90;;;;;;5012923;28;20064;-64
2022/11/16 02:32:06;;;;;;;9.60;5.93;;;11.30;99.90;;;;;;5041263;28;20146;-64
2022/11/16 02:34:49;;;;;;;10.23;5.93;;;11.30;99.90;;;;;;5043717;28;20438;-64
2022/11/16 02:37:19;;;;;;;9.75;6.30;;;11.30;99.90;;;;;;5042429;28;20494;-64
2022/11/16 02:39:50;;;;;;;8.90;5.40;;;11.30;99.90;;;;;;5016954;28;20056;-65
2022/11/16 02:42:21;;;;;;;8.70;6.28;;;11.20;99.90;;;;;;5048320;28;20377;-64
2022/11/16 02:44:49;;;;;;;9.20;6.25;;;11.30;99.90;;;;;;5050331;28;20461;-65
2022/11/16 02:47:20;;;;;;;8.43;6.25;;;11.30;99.90;;;;;;5049947;28;20044;-64
2022/11/16 02:49:51;;;;;;;10.48;6.68;;;11.30;99.90;;;;;;5041264;28;20040;-64
2022/11/16 02:52:17;;;;;;;8.50;6.22;;;11.20;99.90;;;;;;5025459;28;20505;-64
2022/11/16 02:54:43;;;;;;;9.70;6.30;;;11.30;99.90;;;;;;5050188;28;20096;-65
2022/11/16 02:57:08;;;;;;;9.23;6.28;;;11.20;99.90;;;;;;5025372;28;20125;-64
2022/11/16 02:59:43;;;;;;;9.15;6.45;;;11.30;99.90;;;;;;5040972;28;20040;-64
2022/11/16 03:02:45;;;;;;;9.45;6.57;;;11.20;99.90;;;;;;5026389;28;20040;-64
2022/11/16 03:05:19;;;;;;;8.13;6.10;;;11.20;99.90;;;;;;5023396;28;20044;-64
2022/11/16 03:07:49;;;;;;;10.27;6.57;;;11.20;99.90;;;;;;5046097;28;20033;-65
2022/11/16 03:11:58;;;;;;;9.98;7.10;;;11.20;99.90;;;;;;5042741;28;20037;-64
2022/11/16 03:13:07;;;;;;;9.02;6.32;;;11.20;99.90;;;;;;5042775;28;20115;-64
2022/11/16 03:15:37;;;;;;;10.73;6.85;;;11.20;99.90;;;;;;5023844;28;20046;-65
2022/11/16 03:18:04;;;;;;;11.80;6.65;;;11.20;99.90;;;;;;5029630;28;20051;-64
2022/11/16 03:20:32;;;;;;;9.55;6.53;;;11.20;99.90;;;;;;5031905;28;20043;-64
2022/11/16 03:23:04;;;;;;;9.02;6.35;;;11.20;99.90;;;;;;5023384;28;20052;-64
2022/11/16 03:25:35;;;;;;;14.77;6.97;;;11.10;99.90;;;;;;5046936;28;20041;-64
2022/11/16 03:28:20;;;;;;;10.20;7.22;;;11.10;99.90;;;;;;5031735;28;20548;-64
2022/11/16 03:30:54;;;;;;;12.63;7.60;;;11.10;99.90;;;;;;5039669;28;20037;-64
2022/11/16 03:33:29;;;;;;;11.65;7.57;;;11.10;99.90;;;;;;5025427;28;20044;-65
2022/11/16 03:36:04;;;;;;;17.67;8.68;;;11.10;99.90;;;;;;5018219;28;20037;-64
2022/11/16 03:38:32;;;;;;;13.68;8.30;;;11.10;99.90;;;;;;5041433;28;20503;-64
2022/11/16 03:41:05;;;;;;;12.32;8.75;;;11.10;99.90;;;;;;5041253;28;20076;-65
2022/11/16 03:43:32;;;;;;;14.75;8.38;;;11.10;99.90;;;;;;5051159;28;20041;-64
2022/11/16 03:45:58;;;;;;;13.32;9.25;;;11.10;99.90;;;;;;5048305;28;20051;-64
2022/11/16 03:48:24;;;;;;;13.30;8.57;;;11.10;99.90;;;;;;5043609;28;20120;-65
2022/11/16 03:50:50;;;;;;;14.60;8.35;;;11.00;99.90;;;;;;5037139;28;20120;-65
2022/11/16 03:53:16;;;;;;;12.57;8.80;;;11.10;99.90;;;;;;5031245;28;20095;-65
2022/11/16 03:55:43;;;;;;;13.70;8.80;;;11.00;99.90;;;;;;5039016;28;20036;-65
2022/11/16 03:58:09;;;;;;;11.55;8.85;;;11.00;99.90;;;;;;5048179;28;20063;-65
2022/11/16 04:00:35;;;;;;;11.88;8.98;;;11.00;99.90;;;;;;5041339;28;20506;-65
2022/11/16 04:03:01;;;;;;;15.40;8.77;;;11.00;99.90;;;;;;5037743;28;20077;-64
2022/11/16 04:25:10;;;;;;;13.93;9.50;;;10.90;99.90;;;;;;5035838;28;20064;-63
2022/11/16 04:30:20;;;;;;;15.65;9.82;;;10.90;99.90;;;;;;5040506;28;20077;-64
2022/11/16 04:38:16;;;;;;;14.18;9.60;;;10.90;99.90;;;;;;5034303;28;20056;-64
2022/11/16 04:40:41;;;;;;;16.83;9.77;;;10.90;99.90;;;;;;5049645;28;20100;-64
2022/11/16 04:43:07;;;;;;;19.05;10.43;;;10.90;99.90;;;;;;5033517;28;20462;-64
2022/11/16 04:48:18;;;;;;;16.30;10.15;;;10.90;99.90;;;;;;5051386;28;20056;-64
2022/11/16 04:50:45;;;;;;;17.00;10.85;;;10.90;99.90;;;;;;5035367;28;20498;-64
2022/11/16 04:53:12;;;;;;;16.60;10.55;;;10.90;99.90;;;;;;5049238;28;20049;-63
2022/11/16 04:55:37;;;;;;;14.77;10.27;;;10.90;99.90;;;;;;5048229;28;20069;-64
2022/11/16 04:58:03;;;;;;;18.88;11.27;;;10.90;99.90;;;;;;5040897;28;20482;-64
2022/11/16 05:00:29;;;;;;;15.98;10.52;;;10.80;99.90;;;;;;5035664;28;20553;-64
2022/11/16 05:02:55;;;;;;;17.35;11.30;;;10.90;99.90;;;;;;5050214;28;20060;-63
2022/11/16 05:05:20;;;;;;;18.27;10.55;;;10.90;99.90;;;;;;5043793;28;20048;-64
2022/11/16 05:07:46;;;;;;;19.33;11.15;;;10.90;99.90;;;;;;5041487;28;20041;-64
2022/11/16 05:10:13;;;;;;;15.98;10.90;;;10.90;99.90;;;;;;5039843;28;20112;-63
2022/11/16 05:12:38;;;;;;;19.42;11.75;;;10.90;99.90;;;;;;5045719;28;20037;-63
2022/11/16 05:15:05;;;;;;;15.95;10.63;;;11.00;99.90;;;;;;5052151;28;20490;-63
2022/11/16 05:17:31;;;;;;;18.65;11.18;;;10.90;99.90;;;;;;5044429;28;20071;-64
2022/11/16 05:22:40;;;;;;;16.70;11.20;;;10.90;99.90;;;;;;5048392;28;20045;-63
2022/11/16 05:25:07;;;;;;;17.52;11.50;;;10.90;99.90;;;;;;5046513;28;20037;-63
2022/11/16 05:27:33;;;;;;;19.20;12.23;;;10.90;99.90;;;;;;5053164;28;20044;-63
2022/11/16 05:29:59;;;;;;;17.20;11.63;;;10.80;99.90;;;;;;5031351;28;20479;-63
2022/11/16 05:32:26;;;;;;;18.15;12.02;;;10.90;99.90;;;;;;5050181;28;20041;-63
2022/11/16 05:34:52;;;;;;;16.88;11.93;;;10.90;99.90;;;;;;5039130;28;20454;-63
2022/11/16 05:37:19;;;;;;;18.52;11.65;;;10.80;99.90;;;;;;5044541;28;20076;-63
2022/11/16 05:39:46;;;;;;;18.83;12.68;;;10.80;99.90;;;;;;5043212;28;20037;-63
2022/11/16 05:42:12;;;;;;;18.15;12.00;;;10.90;99.90;;;;;;5045973;28;20047;-63
2022/11/16 05:44:38;;;;;;;20.58;12.27;;;10.80;99.90;;;;;;5035959;28;20048;-63
2022/11/16 05:47:04;;;;;;;18.73;12.13;;;10.90;99.90;;;;;;5044250;28;20041;-63
2022/11/16 05:49:29;;;;;;;18.70;12.35;;;10.90;99.90;;;;;;5033559;28;20036;-64
2022/11/16 05:51:55;;;;;;;22.13;13.00;;;10.90;99.90;;;;;;5049199;28;20047;-64
2022/11/16 05:54:23;;;;;;;19.52;13.10;;;10.90;99.90;;;;;;5048834;28;20032;-63
2022/11/16 05:56:49;;;;;;;18.38;12.13;;;10.90;99.90;;;;;;5043674;28;20030;-64
2022/11/16 05:59:17;;;;;;;20.25;13.02;;;10.90;99.90;;;;;;5032235;28;20532;-64
2022/11/16 06:01:43;;;;;;;19.77;13.25;;;10.90;99.90;;;;;;5042115;28;20033;-63
2022/11/16 06:04:09;;;;;;;20.10;13.25;;;10.90;99.90;;;;;;5027352;28;20063;-64
2022/11/16 06:06:35;;;;;;;19.90;12.50;;;10.90;99.90;;;;;;5037109;28;20041;-64
2022/11/16 06:09:01;;;;;;;18.15;12.20;;;10.90;99.90;;;;;;5035176;28;20053;-64
2022/11/16 06:11:27;;;;;;;18.63;13.07;;;10.90;99.90;;;;;;5046993;28;20939;-65
2022/11/16 06:13:52;;;;;;;18.85;12.52;;;10.90;99.90;;;;;;5046302;28;20065;-64
2022/11/16 06:16:18;;;;;;;22.38;13.60;;;10.80;99.90;;;;;;5046002;28;20036;-64
2022/11/16 06:18:46;;;;;;;19.30;13.07;;;10.80;99.90;;;;;;5033343;28;20156;-64
2022/11/16 06:21:13;;;;;;;19.00;12.35;;;10.90;99.90;;;;;;5034232;28;20044;-64
2022/11/16 06:23:39;;;;;;;20.50;13.35;;;10.90;99.90;;;;;;5031995;28;20128;-65
2022/11/16 06:26:05;;;;;;;21.35;13.98;;;10.90;99.90;;;;;;5042303;28;20670;-64
2022/11/16 06:28:31;;;;;;;19.75;13.07;;;10.90;99.90;;;;;;5016847;28;20479;-64
2022/11/16 06:30:57;;;;;;;20.98;12.75;;;10.90;99.90;;;;;;5066273;28;20043;-63
2022/11/16 06:33:23;;;;;;;22.80;13.75;;;10.80;99.90;;;;;;5050344;28;20468;-63
2022/11/16 06:35:49;;;;;;;20.60;13.50;;;10.90;99.90;;;;;;5043795;28;20060;-64
2022/11/16 06:38:17;;;;;;;22.58;13.43;;;10.90;99.90;;;;;;5031887;28;20487;-64
2022/11/16 06:40:51;;;;;;;20.73;13.35;;;10.90;99.90;;;;;;5045839;28;20040;-64
2022/11/16 06:43:17;;;;;;;18.17;11.93;;;10.90;99.90;;;;;;5015356;28;20064;-64
2022/11/16 06:45:42;;;;;;;12.43;8.90;;;10.90;99.90;;;;;;5024218;28;20086;-64
2022/11/16 06:48:08;;;;;;;10.82;7.30;;;10.90;99.90;;;;;;5046678;28;20045;-64
2022/11/16 06:50:34;;;;;;;10.43;7.57;;;10.90;99.90;;;;;;5042472;28;20059;-64
2022/11/16 06:53:00;;;;;;;10.90;8.00;;;11.00;99.90;;;;;;5043913;28;20044;-64
2022/11/16 06:55:26;;;;;;;13.55;9.48;;;11.00;99.90;;;;;;5043570;28;20042;-65
2022/11/16 06:57:52;;;;;;;13.32;9.40;;;11.00;99.90;;;;;;5040134;28;20460;-64
2022/11/16 07:00:17;;;;;;;15.55;10.48;;;11.00;99.90;;;;;;5037228;28;20061;-64
2022/11/16 07:02:43;;;;;;;17.00;10.93;;;11.00;99.90;;;;;;5030575;28;20045;-64
2022/11/16 07:05:09;;;;;;;14.90;10.00;;;11.00;99.90;;;;;;5044009;28;20495;-64
2022/11/16 07:07:34;;;;;;;15.63;9.73;;;11.10;99.90;;;;;;5038530;28;20513;-64
2022/11/16 07:10:00;;;;;;;13.85;9.80;;;11.00;99.90;;;;;;5049283;28;20082;-64
2022/11/16 07:12:26;;;;;;;15.38;10.15;;;11.00;99.90;;;;;;5044242;28;20063;-64
2022/11/16 07:14:51;;;;;;;14.40;10.23;;;11.00;99.90;;;;;;5035487;28;20116;-65
2022/11/16 07:17:17;;;;;;;18.77;10.95;;;11.00;99.90;;;;;;5043169;28;20036;-64
2022/11/16 07:19:42;;;;;;;15.73;11.05;;;11.00;99.90;;;;;;5028750;28;20040;-64
2022/11/16 07:22:08;;;;;;;16.73;11.23;;;11.00;99.90;;;;;;5034137;28;20144;-64
2022/11/16 07:24:34;;;;;;;15.02;10.15;;;11.00;99.90;;;;;;5029962;28;20091;-64
2022/11/16 07:26:59;;;;;;;16.75;11.60;;;11.00;99.90;;;;;;5041731;28;20525;-64
2022/11/16 07:29:25;;;;;;;16.52;11.45;;;11.00;99.90;;;;;;5042694;28;20051;-64
2022/11/16 07:31:51;;;;;;;19.13;12.20;;;10.90;99.90;;;;;;5037438;28;20040;-64
2022/11/16 07:34:16;;;;;;;20.33;13.23;;;11.00;99.90;;;;;;5001697;28;20044;-64
2022/11/16 07:36:42;;;;;;;16.25;12.40;;;11.00;99.90;;;;;;5040814;28;20393;-64
2022/11/16 07:39:09;;;;;;;18.05;11.60;;;11.00;99.90;;;;;;5042710;28;20083;-64
2022/11/16 07:41:37;;;;;;;17.92;12.68;;;10.90;99.90;;;;;;5034286;28;20044;-64
2022/11/16 07:44:03;;;;;;;21.02;13.35;;;11.00;99.90;;;;;;5033152;28;20041;-64
2022/11/16 07:46:29;;;;;;;19.08;13.02;;;11.00;99.90;;;;;;5041666;28;20690;-64
2022/11/16 07:48:56;;;;;;;22.45;14.48;;;11.00;99.90;;;;;;5029892;28;20040;-64
2022/11/16 07:51:21;;;;;;;22.20;14.32;;;11.00;99.90;;;;;;5022510;28;20033;-64
2022/11/16 07:53:51;;;;;;;20.77;13.43;;;11.00;99.90;;;;;;5038725;28;20037;-64
2022/11/16 07:56:16;;;;;;;19.35;13.27;;;10.90;99.90;;;;;;5041364;28;20037;-64
2022/11/16 07:58:42;;;;;;;20.77;13.93;;;11.00;99.90;;;;;;5039714;28;20055;-64
2022/11/16 08:01:13;;;;;;;20.90;13.93;;;11.00;99.90;;;;;;5048789;28;20033;-63
2022/11/16 08:03:40;;;;;;;22.27;13.90;;;11.00;99.90;;;;;;5014650;28;20040;-64
2022/11/16 08:06:27;;;;;;;21.33;13.82;;;10.90;99.90;;;;;;5042002;28;20136;-64
2022/11/16 08:08:53;;;;;;;20.27;13.23;;;10.90;99.90;;;;;;5027325;28;20187;-64
2022/11/16 08:11:18;;;;;;;18.83;13.65;;;11.00;99.90;;;;;;5028701;28;20537;-64
2022/11/16 08:13:44;;;;;;;20.15;13.98;;;11.00;99.90;;;;;;5050468;28;20110;-64
2022/11/16 08:16:18;;;;;;;20.75;14.13;;;10.90;99.90;;;;;;5050560;28;20083;-64
2022/11/16 08:18:45;;;;;;;20.23;13.50;;;11.00;99.90;;;;;;5051455;28;20048;-63
2022/11/16 08:21:13;;;;;;;18.35;12.98;;;11.00;99.90;;;;;;5039641;28;20574;-64
2022/11/16 08:23:39;;;;;;;19.67;14.07;;;11.00;99.90;;;;;;5047898;28;20033;-64
2022/11/16 08:26:14;;;;;;;18.35;13.02;;;11.00;99.90;;;;;;5042798;28;20056;-64
2022/11/16 08:28:41;;;;;;;18.20;13.32;;;11.00;99.90;;;;;;5040210;28;20056;-64
2022/11/16 08:31:25;;;;;;;17.73;13.35;;;11.00;99.90;;;;;;5031458;28;20065;-65
2022/11/16 08:33:51;;;;;;;20.05;13.40;;;11.00;99.90;;;;;;5044044;28;20044;-64
2022/11/16 08:36:17;;;;;;;24.75;15.02;;;11.00;99.90;;;;;;5051983;28;20029;-64
2022/11/16 08:38:44;;;;;;;20.67;14.38;;;11.00;99.90;;;;;;5045160;28;20060;-64
2022/11/16 08:41:10;;;;;;;23.05;15.80;;;11.00;99.90;;;;;;5015921;28;20045;-65
2022/11/16 08:43:38;;;;;;;20.55;13.75;;;11.00;99.90;;;;;;5042713;28;20041;-65
2022/11/16 08:46:04;;;;;;;20.02;14.05;;;11.00;99.90;;;;;;5047685;28;20036;-65
2022/11/16 08:48:30;;;;;;;22.88;14.55;;;11.10;99.90;;;;;;5046178;28;20494;-65
2022/11/16 08:51:02;;;;;;;20.40;13.80;;;11.10;99.90;;;;;;5042457;28;20291;-63
2022/11/16 08:53:28;;;;;;;20.88;14.25;;;11.10;99.90;;;;;;5051108;28;20572;-62
2022/11/16 08:55:53;;;;;;;23.15;15.52;;;11.10;99.90;;;;;;5048683;28;20038;-62
2022/11/16 08:58:19;;;;;;;21.27;14.52;;;11.10;99.90;;;;;;5034171;28;20112;-65
2022/11/16 09:00:44;;;;;;;23.00;14.63;;;11.20;99.90;;;;;;5045737;28;20514;-65
2022/11/16 09:03:10;;;;;;;22.35;14.77;;;11.10;99.90;;;;;;5050446;28;20044;-65
2022/11/16 09:05:37;;;;;;;20.52;14.00;;;11.20;99.90;;;;;;5049625;28;20037;-64
2022/11/16 09:08:04;;;;;;;22.48;15.10;;;11.30;99.90;;;;;;5041087;28;20060;-64
2022/11/16 09:10:30;;;;;;;23.90;15.98;;;11.30;99.90;;;;;;5044940;28;20406;-65
2022/11/16 09:12:55;;;;;;;23.38;14.70;;;11.30;99.90;;;;;;5040804;28;20029;-64
2022/11/16 09:15:21;;;;;;;25.63;15.23;;;11.30;99.90;;;;;;5050488;28;20037;-62
2022/11/16 09:17:47;;;;;;;26.85;15.48;;;11.40;99.90;;;;;;5039630;28;20052;-64
2022/11/16 09:20:13;;;;;;;24.55;14.77;;;11.40;99.90;;;;;;5041837;28;20406;-64
2022/11/16 09:22:38;;;;;;;23.08;14.98;;;11.40;99.90;;;;;;5035574;28;20430;-64
2022/11/16 09:25:04;;;;;;;22.10;14.98;;;11.40;99.90;;;;;;5021510;28;20162;-63
2022/11/16 09:27:30;;;;;;;25.80;16.13;;;11.50;99.90;;;;;;5028624;28;20048;-65
2022/11/16 09:29:56;;;;;;;24.88;15.90;;;11.50;99.90;;;;;;5043670;28;20037;-64
2022/11/16 09:32:21;;;;;;;25.42;16.25;;;11.50;99.90;;;;;;5023207;28;20041;-64
2022/11/16 09:34:47;;;;;;;22.70;14.65;;;11.50;99.90;;;;;;5048657;28;20033;-64
2022/11/16 09:37:14;;;;;;;25.83;16.02;;;11.50;99.90;;;;;;5050897;28;20118;-63
2022/11/16 09:39:39;;;;;;;25.05;15.45;;;11.50;99.90;;;;;;5046949;28;20033;-63
2022/11/16 09:42:41;;;;;;;29.58;17.08;;;11.60;99.90;;;;;;5043761;28;20039;-63
2022/11/16 09:45:39;;;;;;;21.67;14.10;;;11.70;99.90;;;;;;5043232;28;20084;-63
2022/11/16 09:48:10;;;;;;;23.80;14.43;;;11.70;99.90;;;;;;4991125;28;20081;-64
2022/11/16 09:50:58;;;;;;;21.65;12.52;;;11.70;99.90;;;;;;5046918;28;20029;-64
2022/11/16 09:53:40;;;;;;;25.35;13.07;;;11.70;99.90;;;;;;5026671;28;20033;-64
2022/11/16 09:56:13;;;;;;;23.15;13.32;;;11.70;99.90;;;;;;5033515;28;20037;-64
2022/11/16 09:58:45;;;;;;;21.58;12.40;;;11.70;99.90;;;;;;5049955;28;20556;-64
2022/11/16 10:01:22;;;;;;;;;;;11.70;99.90;;;;;;5024080;28;20120;-63
2022/11/16 10:03:52;;;;;;;18.98;11.35;;;11.60;99.90;;;;;;5050062;28;19952;-63
2022/11/16 10:06:35;;;;;;;20.80;11.40;;;11.70;99.90;;;;;;5036818;28;20045;-64
2022/11/16 10:09:01;;;;;;;18.13;11.57;;;11.60;99.90;;;;;;5039126;28;20059;-64
2022/11/16 10:11:36;;;;;;;18.65;10.88;;;11.60;99.90;;;;;;5026592;28;20032;-64
2022/11/16 10:14:01;;;;;;;15.85;10.05;;;11.70;99.90;;;;;;5044949;28;20556;-64
2022/11/16 10:16:51;;;;;;;15.93;10.75;;;11.70;99.90;;;;;;5043495;28;20049;-64
2022/11/16 10:19:35;;;;;;;19.30;10.52;;;11.70;99.90;;;;;;5041875;28;20047;-64
2022/11/16 10:22:17;;;;;;;17.25;9.90;;;11.60;99.90;;;;;;5038970;28;20041;-64
2022/11/16 10:25:01;;;;;;;18.23;10.45;;;11.60;99.90;;;;;;5043584;28;20503;-64
2022/11/16 10:27:36;;;;;;;16.23;10.23;;;11.70;99.90;;;;;;5044137;28;20052;-64
2022/11/16 10:30:15;;;;;;;14.55;9.55;;;11.60;99.90;;;;;;5044067;28;20057;-64
2022/11/16 10:33:11;;;;;;;17.05;8.57;;;11.70;99.90;;;;;;5050350;28;20067;-64
2022/11/16 10:35:44;;;;;;;16.75;8.85;;;11.70;99.90;;;;;;5046713;28;20529;-64
2022/11/16 10:38:20;;;;;;;14.43;7.03;;;11.80;99.90;;;;;;5044844;28;20043;-64
2022/11/16 10:40:51;;;;;;;11.35;6.43;;;11.80;99.90;;;;;;5046151;28;20718;-64
2022/11/16 10:43:18;;;;;;;11.35;5.70;;;11.90;99.90;;;;;;5049401;28;20043;-64
2022/11/16 10:45:54;;;;;;;11.15;5.68;;;11.90;99.90;;;;;;5043457;28;20490;-64
2022/11/16 10:48:40;;;;;;;10.38;5.10;;;11.90;99.90;;;;;;5050438;28;20414;-64
2022/11/16 10:51:08;;;;;;;6.35;4.47;;;11.80;99.90;;;;;;5043583;28;20086;-64
2022/11/16 10:53:39;;;;;;;9.85;4.70;;;11.80;99.90;;;;;;5033965;28;20033;-64
2022/11/16 10:56:18;;;;;;;9.10;5.13;;;11.70;99.90;;;;;;5045738;28;20048;-63
2022/11/16 10:58:49;;;;;;;10.45;4.90;;;11.70;99.90;;;;;;5042920;28;20051;-63
2022/11/16 11:01:28;;;;;;;8.45;5.07;;;11.70;99.90;;;;;;5037889;28;20051;-63
2022/11/16 11:03:53;;;;;;;7.10;4.80;;;11.70;99.90;;;;;;5040252;28;20040;-64
2022/11/16 11:06:25;;;;;;;9.75;5.10;;;11.80;99.90;;;;;;5027245;28;20116;-64
2022/11/16 11:08:51;;;;;;;15.60;5.13;;;11.80;99.90;;;;;;5046791;28;20037;-64
2022/11/16 11:14:12;;;;;;;10.00;4.68;;;12.00;99.90;;;;;;5049096;28;20114;-64
2022/11/16 11:16:40;;;;;;;8.05;4.53;;;12.10;99.90;;;;;;5037630;28;20039;-64
2022/11/16 11:19:26;;;;;;;10.32;4.68;;;12.20;99.90;;;;;;5038214;28;20123;-64
2022/11/16 11:21:58;;;;;;;10.02;4.45;;;12.20;99.90;;;;;;5044520;28;20037;-64
2022/11/16 11:24:25;;;;;;;7.53;3.80;;;12.30;99.90;;;;;;5047245;28;20494;-64
2022/11/16 11:26:57;;;;;;;10.77;3.78;;;12.40;99.90;;;;;;5046762;28;20029;-64
2022/11/16 11:29:35;;;;;;;10.00;4.75;;;12.50;99.90;;;;;;5041359;28;20509;-64
2022/11/16 11:32:13;;;;;;;9.07;3.90;;;12.50;99.90;;;;;;5031521;28;20497;-64
2022/11/16 11:34:42;;;;;;;11.75;4.18;;;12.60;99.90;;;;;;5049229;28;20517;-64
2022/11/16 11:40:28;;;;;;;10.15;3.58;;;12.70;99.90;;;;;;5149252;27;20871;-64
2022/11/16 11:42:59;;;;;;;11.23;3.90;;;12.70;99.90;;;;;;5143334;27;20043;-64
2022/11/16 11:45:45;;;;;;;;;;;12.80;99.90;;;;;;5130512;27;20503;-63
2022/11/16 11:48:21;;;;;;;9.35;4.43;;;12.70;99.90;;;;;;5157683;27;19927;-64
2022/11/16 11:50:57;;;;;;;8.32;3.53;;;12.70;99.90;;;;;;5142727;27;20047;-63
2022/11/16 11:53:40;;;;;;;6.97;3.45;;;12.70;99.90;;;;;;5147818;27;20531;-63
2022/11/16 11:56:10;;;;;;;7.15;3.70;;;12.70;99.90;;;;;;5141697;27;20092;-64
2022/11/16 11:58:38;;;;;;;9.52;3.70;;;12.70;99.90;;;;;;5141731;27;20038;-63
2022/11/16 12:01:38;;;;;;;9.07;3.60;;;12.70;99.90;;;;;;5122884;27;20590;-64
2022/11/16 12:04:06;;;;;;;8.80;2.90;;;12.80;99.90;;;;;;5137298;27;20444;-64
2022/11/16 12:07:01;;;;;;;7.63;2.67;;;12.90;99.90;;;;;;5131152;27;20053;-64
2022/11/16 12:09:50;;;;;;;9.13;3.00;;;12.90;99.90;;;;;;5125926;27;20741;-64
2022/11/16 12:12:30;;;;;;;9.00;2.90;;;12.90;99.90;;;;;;5129781;27;20039;-64
2022/11/16 12:15:36;;;;;;;8.40;2.60;;;13.00;99.90;;;;;;5132353;27;20031;-64
2022/11/16 12:18:27;;;;;;;7.65;3.15;;;13.00;99.90;;;;;;5041346;28;20102;-64
2022/11/16 12:21:05;;;;;;;11.43;2.95;;;12.90;99.90;;;;;;5140531;27;20122;-64
2022/11/16 12:24:01;;;;;;;9.98;3.20;;;13.00;99.90;;;;;;5147416;27;20061;-64
2022/11/16 12:26:42;;;;;;;8.38;2.60;;;13.00;99.90;;;;;;5134925;27;20645;-63
2022/11/16 12:29:39;;;;;;;10.35;2.92;;;13.10;99.90;;;;;;5148647;27;20035;-64
2022/11/16 12:32:16;;;;;;;9.95;3.15;;;13.10;99.90;;;;;;5150621;27;20049;-64
2022/11/16 12:34:53;;;;;;;10.35;3.22;;;13.10;99.90;;;;;;5142470;27;20042;-63
2022/11/16 12:37:31;;;;;;;7.22;2.97;;;13.10;99.90;;;;;;5137866;27;20099;-63
2022/11/16 12:40:12;;;;;;;8.20;3.05;;;13.00;99.90;;;;;;5129271;27;20040;-63
2022/11/16 12:43:00;;;;;;;8.40;2.65;;;12.90;99.90;;;;;;5133656;27;20035;-64
2022/11/16 12:45:35;;;;;;;11.38;3.17;;;12.80;99.90;;;;;;5136650;27;20047;-63
2022/11/16 12:48:34;;;;;;;10.48;2.70;;;12.80;99.90;;;;;;5131383;27;20059;-63
2022/11/16 12:51:21;;;;;;;9.48;2.60;;;12.80;99.90;;;;;;5125310;27;20057;-63
2022/11/16 12:53:59;;;;;;;11.52;3.58;;;12.90;99.90;;;;;;5125851;27;20411;-63
2022/11/16 12:57:13;;;;;;;6.65;2.63;;;13.00;99.90;;;;;;5130213;27;20067;-64
2022/11/16 12:59:49;;;;;;;9.18;2.58;;;13.20;99.90;;;;;;5098342;27;20050;-64
2022/11/16 13:02:50;;;;;;;7.38;2.58;;;13.30;99.90;;;;;;5132377;27;20484;-64
2022/11/16 13:05:37;;;;;;;6.88;2.40;;;13.30;99.90;;;;;;5122161;27;20180;-64
2022/11/16 13:08:27;;;;;;;10.55;3.13;;;13.40;99.90;;;;;;5110280;27;20126;-63
2022/11/16 13:11:08;;;;;;;8.63;2.70;;;13.50;99.90;;;;;;5096629;27;20518;-63
2022/11/16 13:13:35;;;;;;;8.43;2.63;;;13.50;99.90;;;;;;5138684;27;20519;-64
2022/11/16 13:16:03;;;;;;;14.73;2.70;;;13.50;99.90;;;;;;5123366;27;20061;-64
2022/11/16 13:18:30;;;;;;;10.45;2.50;;;13.30;99.90;;;;;;5119054;27;20231;-64
2022/11/16 13:21:16;;;;;;;11.35;2.95;;;13.20;99.90;;;;;;5098623;28;20504;-63
2022/11/16 13:24:08;;;;;;;10.73;2.45;;;13.30;99.90;;;;;;5122384;27;20114;-63
2022/11/16 13:27:12;;;;;;;7.72;2.80;;;13.30;99.90;;;;;;5114285;27;20078;-64
2022/11/16 13:29:53;;;;;;;8.70;2.25;;;13.20;99.90;;;;;;5049549;28;20080;-64
2022/11/16 13:32:38;;;;;;;7.05;2.50;;;13.00;99.90;;;;;;5060488;28;20182;-63
2022/11/16 13:35:05;;;;;;;11.65;2.40;;;12.90;99.90;;;;;;5103945;27;20571;-63
2022/11/16 13:37:37;;;;;;;10.75;2.30;;;12.70;99.90;;;;;;5092620;27;20051;-63
2022/11/16 13:40:05;;;;;;;10.10;2.05;;;12.70;99.90;;;;;;5124616;27;20400;-63
2022/11/16 13:42:37;;;;;;;10.20;2.90;;;12.60;99.90;;;;;;5132529;27;20037;-64